createdAt,value
2023-01-09T00:00:45.367Z,-3.42
2023-01-09T00:03:11.877Z,-3.43
2023-01-09T00:05:38.406Z,-3.41
2023-01-09T00:08:05.158Z,-3.43
2023-01-09T00:10:31.884Z,-3.47
2023-01-09T00:12:58.369Z,-3.45
2023-01-09T00:15:24.854Z,-3.46
2023-01-09T00:17:51.441Z,-3.48
2023-01-09T00:20:18.291Z,-3.48
2023-01-09T00:22:44.765Z,-3.47
2023-01-09T00:25:11.228Z,-3.48
2023-01-09T00:27:37.639Z,-3.42
2023-01-09T00:30:04.878Z,-3.44
2023-01-09T00:32:34.088Z,-3.43
2023-01-09T00:35:00.693Z,-3.46
2023-01-09T00:37:27.044Z,-3.48
2023-01-09T00:39:53.681Z,-3.48
2023-01-09T00:42:24.107Z,-3.48
2023-01-09T00:44:57.118Z,-3.49
2023-01-09T00:47:32.091Z,-3.50
2023-01-09T00:50:11.472Z,-3.47
2023-01-09T00:52:39.776Z,-3.50
2023-01-09T00:55:07.569Z,-3.52
2023-01-09T00:57:34.250Z,-3.48
2023-01-09T01:00:01.640Z,-3.48
2023-01-09T01:02:28.200Z,-3.46
2023-01-09T01:05:13.492Z,-3.46
2023-01-09T01:07:40.622Z,-3.45
2023-01-09T01:10:12.933Z,-3.45
2023-01-09T01:12:40.276Z,-3.44
2023-01-09T01:15:08.204Z,-3.45
2023-01-09T01:17:39.837Z,-3.43
2023-01-09T01:20:10.176Z,-3.40
2023-01-09T01:22:36.651Z,-3.38
2023-01-09T01:25:05.007Z,-3.39
2023-01-09T01:27:31.411Z,-3.43
2023-01-09T01:29:57.854Z,-3.41
2023-01-09T01:32:24.145Z,-3.41
2023-01-09T01:34:51.115Z,-3.41
2023-01-09T01:37:17.648Z,-3.39
2023-01-09T01:39:44.240Z,-3.45
2023-01-09T01:42:13.752Z,-3.44
2023-01-09T01:45:08.785Z,-3.41
2023-01-09T01:47:39.686Z,-3.38
2023-01-09T01:50:25.552Z,-3.37
2023-01-09T01:53:14.698Z,-3.36
2023-01-09T01:55:46.639Z,-3.35
2023-01-09T01:58:15.310Z,-3.31
2023-01-09T02:00:44.848Z,-3.34
2023-01-09T02:03:15.007Z,-3.29
2023-01-09T02:05:41.617Z,-3.28
2023-01-09T02:08:08.709Z,-3.28
2023-01-09T02:10:37.046Z,-3.30
2023-01-09T02:13:04.007Z,-3.28
2023-01-09T02:15:49.592Z,-3.26
2023-01-09T02:18:39.263Z,-3.22
2023-01-09T02:21:33.300Z,-3.21
2023-01-09T02:24:35.865Z,-3.21
2023-01-09T02:27:38.225Z,-3.21
2023-01-09T02:30:31.251Z,-3.21
2023-01-09T02:33:18.819Z,-3.25
2023-01-09T02:36:04.366Z,-3.21
2023-01-09T02:38:42.916Z,-3.18
2023-01-09T02:41:34.947Z,-3.19
2023-01-09T02:44:18.234Z,-3.17
2023-01-09T02:46:45.038Z,-3.17
2023-01-09T02:49:13.192Z,-3.16
2023-01-09T02:51:53.572Z,-3.17
2023-01-09T02:54:32.464Z,-3.14
2023-01-09T02:57:17.870Z,-3.14
2023-01-09T03:04:11.949Z,-3.14
2023-01-09T03:07:07.927Z,-3.08
2023-01-09T03:10:00.901Z,-3.07
2023-01-09T03:12:49.949Z,-3.07
2023-01-09T03:15:39.373Z,-3.05
2023-01-09T03:18:27.606Z,-3.04
2023-01-09T03:21:13.284Z,-3.04
2023-01-09T03:24:00.822Z,-3.05
2023-01-09T03:26:46.048Z,-3.05
2023-01-09T03:29:31.460Z,-3.02
2023-01-09T03:32:16.340Z,-3.03
2023-01-09T03:35:01.670Z,-3.02
2023-01-09T03:37:46.613Z,-3.06
2023-01-09T03:40:31.639Z,-3.02
2023-01-09T03:43:16.737Z,-3.04
2023-01-09T03:46:02.102Z,-3.01
2023-01-09T03:48:47.363Z,-3.00
2023-01-09T03:51:31.951Z,-3.01
2023-01-09T03:54:17.126Z,-3.00
2023-01-09T03:57:02.136Z,-2.99
2023-01-09T03:59:47.311Z,-3.00
2023-01-09T04:02:31.966Z,-3.00
2023-01-09T04:05:16.798Z,-2.99
2023-01-09T04:08:01.505Z,-2.99
2023-01-09T04:10:48.198Z,-2.98
2023-01-09T04:13:32.824Z,-2.98
2023-01-09T04:16:17.877Z,-2.97
2023-01-09T04:19:02.863Z,-2.96
2023-01-09T04:21:48.119Z,-2.94
2023-01-09T04:24:32.875Z,-2.92
2023-01-09T04:27:17.853Z,-2.90
2023-01-09T04:30:04.090Z,-2.91
2023-01-09T04:32:49.226Z,-2.91
2023-01-09T04:35:33.907Z,-2.91
2023-01-09T04:38:19.439Z,-2.88
2023-01-09T04:41:04.084Z,-2.88
2023-01-09T04:43:49.031Z,-2.88
2023-01-09T04:46:33.957Z,-2.91
2023-01-09T04:49:19.651Z,-2.89
2023-01-09T04:52:04.697Z,-2.86
2023-01-09T04:54:49.562Z,-2.85
2023-01-09T04:57:35.381Z,-2.85
2023-01-09T05:00:20.337Z,-2.84
2023-01-09T05:03:05.022Z,-2.84
2023-01-09T05:05:50.185Z,-2.82
2023-01-09T05:08:34.841Z,-2.82
2023-01-09T05:11:19.866Z,-2.80
2023-01-09T05:14:04.507Z,-2.77
2023-01-09T05:16:49.664Z,-2.76
2023-01-09T05:19:34.469Z,-2.79
2023-01-09T05:22:19.779Z,-2.77
2023-01-09T05:25:04.677Z,-2.77
2023-01-09T05:27:49.811Z,-2.75
2023-01-09T05:30:34.671Z,-2.75
2023-01-09T05:33:19.818Z,-2.78
2023-01-09T05:36:05.096Z,-2.76
2023-01-09T05:38:49.773Z,-2.75
2023-01-09T05:41:34.617Z,-2.71
2023-01-09T05:44:19.590Z,-2.70
2023-01-09T05:47:04.265Z,-2.64
2023-01-09T05:49:49.229Z,-2.62
2023-01-09T05:52:34.149Z,-2.59
2023-01-09T05:55:19.609Z,-2.60
2023-01-09T05:58:04.334Z,-2.53
2023-01-09T06:00:51.534Z,-2.56
2023-01-09T06:03:36.224Z,-2.51
2023-01-09T06:06:23.496Z,-2.51
2023-01-09T06:09:08.154Z,-2.49
2023-01-09T06:11:54.186Z,-2.46
2023-01-09T06:14:39.207Z,-2.44
2023-01-09T06:17:27.264Z,-2.42
2023-01-09T06:20:12.423Z,-2.40
2023-01-09T06:22:57.350Z,-2.35
2023-01-09T06:25:41.995Z,-2.33
2023-01-09T06:28:27.092Z,-2.32
2023-01-09T06:31:12.726Z,-2.29
2023-01-09T06:33:58.454Z,-2.28
2023-01-09T06:36:43.302Z,-2.25
2023-01-09T06:39:28.322Z,-2.25
2023-01-09T06:42:13.033Z,-2.24
2023-01-09T06:44:57.961Z,-2.19
2023-01-09T06:47:42.840Z,-2.15
2023-01-09T06:50:27.594Z,-2.14
2023-01-09T06:53:12.353Z,-2.12
2023-01-09T06:56:01.666Z,-2.14
2023-01-09T06:58:46.507Z,-2.09
2023-01-09T07:01:31.932Z,-2.07
2023-01-09T07:04:17.318Z,-2.06
2023-01-09T07:07:02.544Z,-2.03
2023-01-09T07:09:47.706Z,-1.99
2023-01-09T07:12:32.587Z,-1.96
2023-01-09T07:15:17.562Z,-1.91
2023-01-09T07:18:03.261Z,-1.92
2023-01-09T07:20:48.679Z,-1.89
2023-01-09T07:23:34.001Z,-1.86
2023-01-09T07:26:19.192Z,-1.82
2023-01-09T07:29:04.508Z,-1.79
2023-01-09T07:31:49.515Z,-1.75
2023-01-09T07:34:34.557Z,-1.74
2023-01-09T07:37:19.177Z,-1.73
2023-01-09T07:40:04.670Z,-1.68
2023-01-09T07:42:52.281Z,-1.66
2023-01-09T07:45:37.329Z,-1.62
2023-01-09T07:48:22.103Z,-1.56
2023-01-09T07:51:07.122Z,-1.55
2023-01-09T07:53:51.933Z,-1.48
2023-01-09T07:56:36.588Z,-1.47
2023-01-09T07:59:21.673Z,-1.45
2023-01-09T08:02:08.721Z,-1.44
2023-01-09T08:04:53.408Z,-1.44
2023-01-09T08:07:38.102Z,-1.40
2023-01-09T08:10:22.991Z,-1.40
2023-01-09T08:13:07.853Z,-1.37
2023-01-09T08:15:53.514Z,-1.36
2023-01-09T08:18:38.636Z,-1.36
2023-01-09T08:21:23.304Z,-1.33
2023-01-09T08:24:09.213Z,-1.30
2023-01-09T08:26:55.896Z,-1.32
2023-01-09T08:29:40.771Z,-1.31
2023-01-09T08:32:25.951Z,-1.29
2023-01-09T08:35:10.959Z,-1.32
2023-01-09T08:37:56.307Z,-1.31
2023-01-09T08:40:41.119Z,-1.31
2023-01-09T08:43:44.839Z,-1.30
2023-01-09T08:46:57.381Z,-1.28
2023-01-09T08:49:42.214Z,-1.28
2023-01-09T08:52:30.028Z,-1.25
2023-01-09T08:55:15.003Z,-1.20
2023-01-09T08:58:00.246Z,-1.17
2023-01-09T09:00:44.805Z,-1.11
2023-01-09T09:03:29.453Z,-1.06
2023-01-09T09:06:14.664Z,-1.06
2023-01-09T09:09:03.390Z,-1.03
2023-01-09T09:11:48.165Z,-0.99
2023-01-09T09:14:51.661Z,-0.98
2023-01-09T09:17:40.022Z,-0.96
2023-01-09T09:20:34.394Z,-1.00
2023-01-09T09:23:19.340Z,-0.99
2023-01-09T09:26:04.556Z,-0.97
2023-01-09T09:28:49.341Z,-0.95
2023-01-09T09:31:35.736Z,-0.91
2023-01-09T09:34:20.498Z,-0.94
2023-01-09T09:37:05.174Z,-0.88
2023-01-09T09:39:49.965Z,-0.89
2023-01-09T09:43:21.585Z,-0.86
2023-01-09T09:46:27.870Z,-0.83
2023-01-09T09:49:23.417Z,-0.83
2023-01-09T09:52:20.213Z,-0.83
2023-01-09T09:55:20.769Z,-0.79
2023-01-09T09:58:25.497Z,-0.76
2023-01-09T10:01:16.224Z,-0.71
2023-01-09T10:04:06.257Z,-0.68
2023-01-09T10:06:57.157Z,-0.66
2023-01-09T10:09:54.042Z,-0.60
2023-01-09T10:12:50.094Z,-0.58
2023-01-09T10:15:46.806Z,-0.54
2023-01-09T10:18:40.239Z,-0.51
2023-01-09T10:21:35.545Z,-0.44
2023-01-09T10:24:42.274Z,-0.45
2023-01-09T10:27:48.295Z,-0.39
2023-01-09T10:31:09.834Z,-0.35
2023-01-09T10:34:55.147Z,-0.33
2023-01-09T10:37:46.126Z,-0.41
2023-01-09T10:40:37.483Z,-0.34
2023-01-09T10:43:48.771Z,-0.40
2023-01-09T10:46:49.217Z,-0.36
2023-01-09T10:49:36.490Z,-0.32
2023-01-09T10:52:29.425Z,-0.37
2023-01-09T10:55:18.798Z,-0.28
2023-01-09T10:58:18.344Z,-0.26
2023-01-09T11:01:04.800Z,-0.21
2023-01-09T11:03:49.362Z,-0.22
2023-01-09T11:06:47.005Z,-0.19
2023-01-09T11:10:11.498Z,-0.14
2023-01-09T11:13:18.966Z,-0.15
2023-01-09T11:16:10.384Z,-0.12
2023-01-09T11:18:59.216Z,-0.09
2023-01-09T11:21:44.327Z,-0.08
2023-01-09T11:24:30.783Z,-0.07
2023-01-09T11:27:24.205Z,-0.06
2023-01-09T11:30:25.573Z,-0.03
2023-01-09T11:33:33.820Z,0.02
2023-01-09T11:36:26.499Z,0.00
2023-01-09T11:39:25.087Z,-0.01
2023-01-09T11:42:44.763Z,0.00
2023-01-09T11:45:33.361Z,0.03
2023-01-09T11:48:54.052Z,0.06
2023-01-09T11:51:38.844Z,0.14
2023-01-09T11:54:34.695Z,0.13
2023-01-09T11:57:22.495Z,0.16
2023-01-09T12:00:30.303Z,0.19
2023-01-09T12:03:30.255Z,0.20
2023-01-09T12:06:38.008Z,0.18
2023-01-09T12:09:54.672Z,0.19
2023-01-09T12:13:14.416Z,0.11
2023-01-09T12:16:08.152Z,0.18
2023-01-09T12:19:06.938Z,0.19
2023-01-09T12:22:01.875Z,0.22
2023-01-09T12:25:05.515Z,0.20
2023-01-09T12:28:27.401Z,0.21
2023-01-09T12:31:30.838Z,0.18
2023-01-09T12:34:18.772Z,0.21
2023-01-09T12:37:22.660Z,0.19
2023-01-09T12:40:16.913Z,0.21
2023-01-09T12:43:28.881Z,0.25
2023-01-09T12:46:22.444Z,0.23
2023-01-09T12:49:27.345Z,0.27
2023-01-09T12:52:22.519Z,0.28
2023-01-09T12:55:13.806Z,0.30
2023-01-09T12:58:01.107Z,0.29
2023-01-09T13:00:53.362Z,0.29
2023-01-09T13:03:50.641Z,0.34
2023-01-09T13:06:39.760Z,0.38
2023-01-09T13:09:31.545Z,0.39
2023-01-09T13:12:22.423Z,0.42
2023-01-09T13:15:22.041Z,0.42
2023-01-09T13:18:25.982Z,0.42
2023-01-09T13:21:12.209Z,0.43
2023-01-09T13:24:20.231Z,0.42
2023-01-09T13:27:16.182Z,0.43
2023-01-09T13:30:14.410Z,0.42
2023-01-09T13:33:17.825Z,0.43
2023-01-09T13:36:05.100Z,0.41
2023-01-09T13:38:50.642Z,0.42
2023-01-09T13:42:06.108Z,0.47
2023-01-09T13:44:55.921Z,0.47
2023-01-09T13:47:44.359Z,0.48
2023-01-09T13:50:29.087Z,0.50
2023-01-09T13:53:16.893Z,0.51
2023-01-09T13:56:02.674Z,0.51
2023-01-09T13:58:53.815Z,0.51
2023-01-09T14:01:41.073Z,0.50
2023-01-09T14:04:40.895Z,0.52
2023-01-09T14:07:28.098Z,0.53
2023-01-09T14:10:26.956Z,0.55
2023-01-09T14:13:19.995Z,0.56
2023-01-09T14:16:13.675Z,0.58
2023-01-09T14:19:02.277Z,0.59
2023-01-09T14:21:56.767Z,0.64
2023-01-09T14:24:46.033Z,0.63
2023-01-09T14:27:55.474Z,0.66
2023-01-09T14:30:52.190Z,0.68
2023-01-09T14:33:37.683Z,0.69
2023-01-09T14:36:26.593Z,0.70
2023-01-09T14:39:13.313Z,0.68
2023-01-09T14:42:05.694Z,0.73
2023-01-09T14:45:05.952Z,0.79
2023-01-09T14:47:54.144Z,0.80
2023-01-09T14:50:50.013Z,0.80
2023-01-09T14:53:38.705Z,0.86
2023-01-09T14:56:29.904Z,0.88
2023-01-09T14:59:15.795Z,0.88
2023-01-09T15:02:01.274Z,0.92
2023-01-09T15:04:45.957Z,0.97
2023-01-09T15:07:39.779Z,0.98
2023-01-09T15:10:30.010Z,1.03
2023-01-09T15:13:28.708Z,1.03
2023-01-09T15:16:19.925Z,1.09
2023-01-09T15:19:08.306Z,1.14
2023-01-09T15:21:58.645Z,1.14
2023-01-09T15:24:43.685Z,1.23
2023-01-09T15:27:29.235Z,1.22
2023-01-09T15:30:21.947Z,1.27
2023-01-09T15:33:15.891Z,1.29
2023-01-09T15:36:07.062Z,1.33
2023-01-09T15:38:52.918Z,1.38
2023-01-09T15:41:56.244Z,1.41
2023-01-09T15:44:44.359Z,1.46
2023-01-09T15:47:32.106Z,1.46
2023-01-09T15:50:27.415Z,1.52
2023-01-09T15:53:23.654Z,1.51
2023-01-09T15:56:11.521Z,1.54
2023-01-09T15:58:58.148Z,1.53
2023-01-09T16:01:44.289Z,1.53
2023-01-09T16:04:29.320Z,1.56
2023-01-09T16:07:16.232Z,1.54
2023-01-09T16:10:01.338Z,1.61
2023-01-09T16:12:47.532Z,1.59
2023-01-09T16:15:34.586Z,1.59
2023-01-09T16:18:22.758Z,1.61
2023-01-09T16:21:31.468Z,1.63
2023-01-09T16:24:16.141Z,1.66
2023-01-09T16:27:13.905Z,1.68
2023-01-09T16:30:05.388Z,1.68
2023-01-09T16:32:53.405Z,1.69
2023-01-09T16:35:38.352Z,1.72
2023-01-09T16:38:25.639Z,1.75
2023-01-09T16:41:34.364Z,1.75
2023-01-09T16:44:19.640Z,1.75
2023-01-09T16:47:05.022Z,1.78
2023-01-09T16:49:49.953Z,1.80
2023-01-09T16:52:34.595Z,1.77
2023-01-09T16:55:19.881Z,1.79
2023-01-09T16:58:04.580Z,1.81
2023-01-09T17:00:50.058Z,1.83
2023-01-09T17:03:35.427Z,1.88
2023-01-09T17:06:26.218Z,1.86
2023-01-09T17:09:13.603Z,1.88
2023-01-09T17:11:58.745Z,1.88
2023-01-09T17:14:43.730Z,1.89
2023-01-09T17:17:28.844Z,1.93
2023-01-09T17:20:17.750Z,1.96
2023-01-09T17:23:02.487Z,1.93
2023-01-09T17:26:09.137Z,1.98
2023-01-09T17:28:54.249Z,2.01
2023-01-09T17:31:39.259Z,2.06
2023-01-09T17:34:24.322Z,2.05
2023-01-09T17:37:19.168Z,2.06
2023-01-09T17:40:25.662Z,2.05
2023-01-09T17:43:10.699Z,2.08
2023-01-09T17:45:55.912Z,2.07
2023-01-09T17:48:40.679Z,2.06
2023-01-09T17:51:26.342Z,2.06
2023-01-09T17:54:11.640Z,2.03
2023-01-09T17:57:03.769Z,2.03
2023-01-09T17:59:48.862Z,2.01
2023-01-09T18:02:33.954Z,1.97
2023-01-09T18:05:19.669Z,1.95
2023-01-09T18:08:08.494Z,1.95
2023-01-09T18:10:54.066Z,1.91
2023-01-09T18:13:39.795Z,1.91
2023-01-09T18:16:26.936Z,1.90
2023-01-09T18:19:12.192Z,1.88
2023-01-09T18:21:58.798Z,1.88
2023-01-09T18:24:43.768Z,1.86
2023-01-09T18:27:28.823Z,1.82
2023-01-09T18:30:13.741Z,1.80
2023-01-09T18:32:58.510Z,1.81
2023-01-09T18:35:44.613Z,1.81
2023-01-09T18:38:30.269Z,1.79
2023-01-09T18:41:15.094Z,1.77
2023-01-09T18:44:01.240Z,1.78
2023-01-09T18:46:46.513Z,1.77
2023-01-09T18:49:31.667Z,1.72
2023-01-09T18:52:16.638Z,1.75
2023-01-09T18:55:01.401Z,1.69
2023-01-09T18:57:46.363Z,1.69
2023-01-09T19:00:31.283Z,1.67
2023-01-09T19:03:16.377Z,1.68
2023-01-09T19:06:02.648Z,1.64
2023-01-09T19:08:48.141Z,1.63
2023-01-09T19:11:32.444Z,1.62
2023-01-09T19:14:17.232Z,1.58
2023-01-09T19:17:01.890Z,1.60
2023-01-09T19:19:49.503Z,1.59
2023-01-09T19:22:34.313Z,1.57
2023-01-09T19:25:19.163Z,1.57
2023-01-09T19:28:04.160Z,1.55
2023-01-09T19:30:56.435Z,1.56
2023-01-09T19:33:41.366Z,1.52
2023-01-09T19:36:27.067Z,1.53
2023-01-09T19:39:12.133Z,1.49
2023-01-09T19:41:59.180Z,1.53
2023-01-09T19:44:45.557Z,1.54
2023-01-09T19:47:36.968Z,1.51
2023-01-09T19:50:22.241Z,1.49
2023-01-09T19:53:07.238Z,1.49
2023-01-09T19:55:52.014Z,1.51
2023-01-09T19:58:37.359Z,1.50
2023-01-09T20:01:24.996Z,1.49
2023-01-09T20:04:15.178Z,1.48
2023-01-09T20:06:59.914Z,1.46
2023-01-09T20:09:45.127Z,1.44
2023-01-09T20:12:31.372Z,1.45
2023-01-09T20:15:16.844Z,1.47
2023-01-09T20:18:03.617Z,1.47
2023-01-09T20:20:49.563Z,1.45
2023-01-09T20:23:35.497Z,1.46
2023-01-09T20:26:22.216Z,1.47
2023-01-09T20:29:09.989Z,1.42
2023-01-09T20:31:55.423Z,1.45
2023-01-09T20:34:42.127Z,1.41
2023-01-09T20:37:27.099Z,1.46
2023-01-09T20:40:11.785Z,1.45
2023-01-09T20:42:57.809Z,1.46
2023-01-09T20:45:42.827Z,1.46
2023-01-09T20:48:28.564Z,1.47
2023-01-09T20:51:13.785Z,1.48
2023-01-09T20:53:58.709Z,1.47
2023-01-09T20:56:44.049Z,1.46
2023-01-09T20:59:28.827Z,1.45
2023-01-09T21:02:14.264Z,1.48
2023-01-09T21:04:59.008Z,1.46
2023-01-09T21:07:43.891Z,1.50
2023-01-09T21:10:28.408Z,1.50
2023-01-09T21:13:13.271Z,1.51
2023-01-09T21:16:03.880Z,1.52
2023-01-09T21:18:50.082Z,1.49
2023-01-09T21:21:35.013Z,1.51
2023-01-09T21:24:19.732Z,1.54
2023-01-09T21:27:04.222Z,1.54
2023-01-09T21:29:53.656Z,1.51
2023-01-09T21:32:38.603Z,1.52
2023-01-09T21:35:23.595Z,1.56
2023-01-09T21:38:09.137Z,1.55
2023-01-09T21:40:54.430Z,1.57
2023-01-09T21:43:57.500Z,1.58
2023-01-09T21:46:51.338Z,1.59
2023-01-09T21:49:40.067Z,1.60
2023-01-09T21:52:25.076Z,1.62
2023-01-09T21:55:09.754Z,1.63
2023-01-09T21:57:55.692Z,1.64
2023-01-09T22:01:05.760Z,1.65
2023-01-09T22:03:56.231Z,1.66
2023-01-09T22:06:43.958Z,1.69
2023-01-09T22:09:28.722Z,1.72
2023-01-09T22:12:13.761Z,1.69
2023-01-09T22:14:58.689Z,1.73
2023-01-09T22:17:43.319Z,1.75
2023-01-09T22:20:28.206Z,1.73
2023-01-09T22:23:13.799Z,1.75
2023-01-09T22:26:00.037Z,1.74
2023-01-09T22:28:45.430Z,1.76
2023-01-09T22:31:32.140Z,1.76
2023-01-09T22:34:17.831Z,1.75
2023-01-09T22:37:02.963Z,1.80
2023-01-09T22:39:47.912Z,1.81
2023-01-09T22:42:32.738Z,1.85
2023-01-09T22:45:17.754Z,1.84
2023-01-09T22:48:02.700Z,1.86
2023-01-09T22:50:47.386Z,1.82
2023-01-09T22:53:33.198Z,1.81
2023-01-09T22:56:20.163Z,1.84
2023-01-09T22:59:07.995Z,1.84
2023-01-09T23:01:53.543Z,1.84
2023-01-09T23:04:38.751Z,1.83
2023-01-09T23:07:24.268Z,1.85
2023-01-09T23:10:09.951Z,1.85
2023-01-09T23:12:54.920Z,1.89
2023-01-09T23:15:40.285Z,1.90
2023-01-09T23:18:25.099Z,1.90
2023-01-09T23:21:10.455Z,1.91
2023-01-09T23:23:54.807Z,1.96
2023-01-09T23:26:39.710Z,1.92
2023-01-09T23:29:25.630Z,1.94
2023-01-09T23:32:13.519Z,1.93
2023-01-09T23:34:58.245Z,1.95
2023-01-09T23:37:43.373Z,1.96
2023-01-09T23:40:28.975Z,1.95
2023-01-09T23:43:14.838Z,1.97
2023-01-09T23:45:59.569Z,1.96
2023-01-09T23:48:44.515Z,1.90
2023-01-09T23:51:29.399Z,1.94
2023-01-09T23:54:14.342Z,1.94
2023-01-09T23:56:58.700Z,1.95
2023-01-09T23:59:43.760Z,1.95
